Airfield :







YOU CAN JOIN US ON...

 
LOGIN :

Register | Disclaimer

   EN    FR    IT 

 









Legend :    VFR   Marginal VFR   IFR   Intensive IFR   Very Intensive IFR
Visi :
Ceiling :
>= 8 km
>= 3000ft
5 to 8 km
1000 to 3000 ft
1500m to 5 km
500 to 1000 ft
800 to 1500m
200 to 500 ft
< 800m
< 200 ft
Symbols :   Thunderstorms  Fog  Heavy snow  Heavy precipitations  Wind > 20 kt







- Airport Elevation : 534 ft
- IATA code : PQI


KPQI - Northern Maine Regional Arpt At Presque Isle

CURRENT METAR :
  • 211935Z AUTO 30006KT 1 1/2SM -SN SCT014 OVC022 M06/M08 A2970 RMK AO2 P0000 FZRANO

EXPIRED METARs :
  • 211918Z AUTO 28003KT 1SM -SN SCT013 BKN023 OVC033 M05/M09 A2969 RMK AO2 P0000 FZRANO RVRNO
  • 211908Z AUTO 23004KT 2SM -SN BKN025 BKN031 OVC043 M05/M09 A2969 RMK AO2 VIS 1 1/2V3 P0000 FZRANO
  • 211856Z AUTO 26006KT 10SM -SN FEW023 BKN041 OVC060 M04/M11 A2971 RMK AO2 SNB56 SLP105 P0000 T10441106 FZRANO
  • 211756Z AUTO 28009KT 9SM SCT031 BKN070 M04/M11 A2972 RMK AO2 SLP110 60000 T10441106 11033 21067 56019 FZRANO
  • 211656Z AUTO 28007KT 10SM BKN035 M04/M11 A2973 RMK AO2 SLP114 T10441111 FZRANO

TAF KPQI
Valid from the 21 at 19:00 until the 22 at 18:00 UTC


211924Z 2119/2218 26005KT 1SM -SHSN BKN025
FM212200 36005KT 3SM -SHSN OVC027
TEMPO 2122/2124 1/4SM +SHSN OVC001
FM220000 35014G22KT P6SM OVC027
FM220100 34013G22KT 3SM BLSN VCSH OVC035
FM220400 31009KT 5SM BLSN BKN060
FM221600 32016G29KT 2SM BLSN OVC035
KZBW FIR / North America



MET'MAP, your aeronautical weather chart ! - Copyright ORBIFLY December 2007 - Disclaimer

ORBIFLY MET'MAP TEAM :

Programming & Development : Alexandra Zaïnal
Concept & Development : Baudouin d'Aumeries
Co-Development & Prog : Marc-Olivier Méhu
Technical & hardware support : Manuel Goepfert

Contact : metmap@orbifly.com




SOURCES & CREDITS :

   NOAA